Time;durP1;ratioP1;P1;durP2;ratioP2;P2;SDS_P1;SDS_P2;PMS_P1;PMS_P2;Temp;Humidity;BMP_temperature;BMP_pressure;BME280_temperature;BME280_humidity;BME280_pressure;Samples;Min_cycle;Max_cycle;Signal;HPM_P1;HPM_P2
2023/10/24 00:01:27;;;;;;;22.98;7.95;;;19.60;89.80;;;;;;6276568;22;20326;-72
2023/10/24 00:03:53;;;;;;;20.73;7.88;;;19.60;89.80;;;;;;6276673;22;20473;-73
2023/10/24 00:06:19;;;;;;;21.70;7.78;;;19.60;89.80;;;;;;6276683;22;20004;-72
2023/10/24 00:08:45;;;;;;;18.38;8.20;;;19.60;89.90;;;;;;6276629;22;20418;-72
2023/10/24 00:11:11;;;;;;;18.30;7.57;;;19.60;90.00;;;;;;6228998;22;20106;-72
2023/10/24 00:13:52;;;;;;;19.52;7.47;;;19.50;90.10;;;;;;6191758;23;20021;-73
2023/10/24 00:16:18;;;;;;;24.23;8.57;;;19.50;90.10;;;;;;6215692;23;20004;-72
2023/10/24 00:18:43;;;;;;;16.75;7.18;;;19.50;90.00;;;;;;6215249;23;19997;-73
2023/10/24 00:21:09;;;;;;;23.58;8.07;;;19.50;90.10;;;;;;6215192;23;20013;-72
2023/10/24 00:23:34;;;;;;;20.17;7.68;;;19.50;90.10;;;;;;6215173;23;20501;-73
2023/10/24 00:26:00;;;;;;;23.25;7.97;;;19.40;90.10;;;;;;6215464;23;20000;-72
2023/10/24 00:28:26;;;;;;;22.88;8.05;;;19.40;90.10;;;;;;6215461;23;20044;-72
2023/10/24 00:30:52;;;;;;;19.35;7.97;;;19.40;90.20;;;;;;6215312;23;20005;-72
2023/10/24 00:33:17;;;;;;;21.35;8.60;;;19.40;90.10;;;;;;6214946;23;20457;-72
2023/10/24 00:35:43;;;;;;;18.30;7.70;;;19.40;90.20;;;;;;6214756;23;20001;-72
2023/10/24 00:38:08;;;;;;;20.35;7.35;;;19.40;90.30;;;;;;6245686;23;20066;-72
2023/10/24 00:40:34;;;;;;;21.10;7.35;;;19.40;90.30;;;;;;6245380;23;20508;-72
2023/10/24 00:43:04;;;;;;;16.65;7.18;;;19.40;90.30;;;;;;6245589;23;20000;-73
2023/10/24 00:45:34;;;;;;;19.20;7.63;;;19.40;90.30;;;;;;6244984;23;20034;-72
2023/10/24 00:48:00;;;;;;;15.13;6.97;;;19.40;90.40;;;;;;6245411;23;20004;-72
2023/10/24 00:50:27;;;;;;;19.45;7.53;;;19.40;90.30;;;;;;6217794;23;20505;-72
2023/10/24 00:52:52;;;;;;;21.95;8.50;;;19.40;90.30;;;;;;6245078;23;20007;-72
2023/10/24 00:55:20;;;;;;;20.13;7.88;;;19.40;90.30;;;;;;6241883;23;20004;-72
2023/10/24 00:57:47;;;;;;;19.17;7.90;;;19.30;90.20;;;;;;6245169;23;20007;-72
2023/10/24 01:00:13;;;;;;;23.92;8.85;;;19.30;90.20;;;;;;6244931;23;20015;-72
2023/10/24 01:02:40;;;;;;;18.90;7.32;;;19.30;90.20;;;;;;6242784;23;20000;-72
2023/10/24 01:05:07;;;;;;;25.23;8.15;;;19.30;90.20;;;;;;6244826;23;20015;-71
2023/10/24 01:07:33;;;;;;;17.10;7.85;;;19.30;90.10;;;;;;6245139;23;20051;-72
2023/10/24 01:09:59;;;;;;;25.27;8.52;;;19.30;90.10;;;;;;6245133;23;20020;-72
2023/10/24 01:12:26;;;;;;;17.95;7.63;;;19.30;90.10;;;;;;6245624;23;20429;-72
2023/10/24 01:14:52;;;;;;;18.30;7.10;;;19.30;90.00;;;;;;6245769;23;20061;-73
2023/10/24 01:17:17;;;;;;;16.05;7.22;;;19.30;90.00;;;;;;6245378;23;20031;-72
2023/10/24 01:19:43;;;;;;;18.20;6.78;;;19.30;89.80;;;;;;6245084;23;20083;-72
2023/10/24 01:22:09;;;;;;;18.65;6.80;;;19.30;89.70;;;;;;6245800;23;20004;-72
2023/10/24 01:24:35;;;;;;;18.42;6.30;;;19.30;89.40;;;;;;6244919;23;20004;-72
2023/10/24 01:27:01;;;;;;;18.02;5.57;;;19.20;89.00;;;;;;6244999;23;20010;-72
2023/10/24 01:29:26;;;;;;;18.05;5.80;;;19.30;88.90;;;;;;6245221;23;20075;-71
2023/10/24 01:31:52;;;;;;;14.70;5.47;;;19.20;88.50;;;;;;6244649;23;20054;-72
2023/10/24 01:34:18;;;;;;;18.10;5.78;;;19.20;88.30;;;;;;6244698;23;20377;-72
2023/10/24 01:36:44;;;;;;;17.27;5.60;;;19.20;88.10;;;;;;6244817;23;20095;-72
2023/10/24 01:39:11;;;;;;;13.38;4.78;;;19.20;87.90;;;;;;6244701;23;20004;-72
2023/10/24 01:41:36;;;;;;;13.27;4.25;;;19.30;87.80;;;;;;6244384;23;20012;-72
2023/10/24 01:44:03;;;;;;;14.05;4.90;;;19.30;87.50;;;;;;6244969;23;20083;-74
2023/10/24 01:46:29;;;;;;;14.13;4.53;;;19.20;87.40;;;;;;6245093;23;20303;-72
2023/10/24 01:48:55;;;;;;;17.92;4.93;;;19.20;87.30;;;;;;6244553;23;20002;-72
2023/10/24 01:51:20;;;;;;;18.35;4.90;;;19.20;87.20;;;;;;6244737;23;20027;-71
2023/10/24 01:53:46;;;;;;;15.00;5.20;;;19.20;87.00;;;;;;6244913;23;20019;-72
2023/10/24 01:56:13;;;;;;;12.25;4.30;;;19.20;87.00;;;;;;6244784;23;20016;-73
2023/10/24 01:58:39;;;;;;;15.98;4.72;;;19.20;86.70;;;;;;6244453;23;20023;-72
2023/10/24 02:01:06;;;;;;;15.63;4.45;;;19.20;86.60;;;;;;6244925;23;20015;-73
2023/10/24 02:03:32;;;;;;;16.92;4.95;;;19.20;86.70;;;;;;6244692;23;20012;-73
2023/10/24 02:05:58;;;;;;;12.27;4.07;;;19.10;86.80;;;;;;6244557;23;20430;-72
2023/10/24 02:08:24;;;;;;;12.18;3.97;;;19.10;86.50;;;;;;6244557;23;20000;-71
2023/10/24 02:10:50;;;;;;;14.35;4.47;;;19.10;86.60;;;;;;6243309;23;20342;-72
2023/10/24 02:13:16;;;;;;;13.25;4.60;;;19.10;86.80;;;;;;6244571;23;20015;-71
2023/10/24 02:15:43;;;;;;;13.10;4.70;;;19.10;86.90;;;;;;6244194;23;20044;-71
2023/10/24 02:18:08;;;;;;;13.90;4.68;;;19.10;86.90;;;;;;6244362;23;20004;-71
2023/10/24 02:20:34;;;;;;;16.38;4.30;;;19.00;86.80;;;;;;6243859;23;20016;-73
2023/10/24 02:23:00;;;;;;;13.60;4.20;;;19.00;86.80;;;;;;6244177;23;20007;-71
2023/10/24 02:25:25;;;;;;;19.15;4.50;;;19.00;86.80;;;;;;6244466;23;20035;-72
2023/10/24 02:27:52;;;;;;;13.70;4.15;;;19.00;86.80;;;;;;6250642;23;20299;-71
2023/10/24 02:30:18;;;;;;;18.13;4.90;;;19.00;86.90;;;;;;6250548;23;20394;-71
2023/10/24 02:32:44;;;;;;;16.83;4.80;;;19.00;86.80;;;;;;6217335;23;20024;-72
2023/10/24 02:35:10;;;;;;;17.42;4.78;;;19.00;86.80;;;;;;6244410;23;20007;-72
2023/10/24 02:37:36;;;;;;;12.52;4.60;;;19.00;86.80;;;;;;6244072;23;20023;-71
2023/10/24 02:40:02;;;;;;;12.30;4.50;;;19.00;86.70;;;;;;6244293;23;20032;-72
2023/10/24 02:42:28;;;;;;;16.70;4.13;;;18.90;86.70;;;;;;6244321;23;20012;-71
2023/10/24 02:44:54;;;;;;;16.10;4.88;;;18.90;86.80;;;;;;6244480;23;19996;-71
2023/10/24 02:47:19;;;;;;;16.85;4.75;;;18.90;86.70;;;;;;6244237;23;20050;-71
2023/10/24 02:49:45;;;;;;;11.55;3.83;;;18.90;86.70;;;;;;6244249;23;20004;-72
2023/10/24 02:52:11;;;;;;;14.75;4.30;;;18.90;86.80;;;;;;6244437;23;19996;-72
2023/10/24 02:54:37;;;;;;;14.15;4.63;;;18.90;87.00;;;;;;6244205;23;20005;-72
2023/10/24 02:57:03;;;;;;;11.52;4.07;;;18.80;87.00;;;;;;6244646;23;19996;-72
2023/10/24 02:59:30;;;;;;;16.33;4.57;;;18.80;87.00;;;;;;6244004;23;20434;-71
2023/10/24 03:01:56;;;;;;;11.10;3.58;;;18.80;87.00;;;;;;6217335;23;20066;-73
2023/10/24 03:04:22;;;;;;;12.82;3.60;;;18.80;87.00;;;;;;6244472;23;20441;-71
2023/10/24 03:06:47;;;;;;;13.52;4.60;;;18.80;86.90;;;;;;6244688;23;20035;-72
2023/10/24 03:09:13;;;;;;;13.57;3.75;;;18.80;86.70;;;;;;6243896;23;19996;-73
2023/10/24 03:11:39;;;;;;;17.73;4.28;;;18.80;86.60;;;;;;6243907;23;20082;-71
2023/10/24 03:14:04;;;;;;;14.65;3.95;;;18.80;86.80;;;;;;6244341;23;20007;-72
2023/10/24 03:16:30;;;;;;;15.25;3.90;;;18.80;86.50;;;;;;6244304;23;20016;-73
2023/10/24 03:18:56;;;;;;;13.88;4.65;;;18.80;86.60;;;;;;6244344;23;20056;-71
2023/10/24 03:21:21;;;;;;;13.45;4.30;;;18.70;86.30;;;;;;6243182;23;20012;-72
2023/10/24 03:23:47;;;;;;;17.38;4.32;;;18.80;86.50;;;;;;6244668;23;20043;-71
2023/10/24 03:26:13;;;;;;;17.83;5.03;;;18.70;86.40;;;;;;6244473;23;20079;-72
2023/10/24 03:28:39;;;;;;;14.55;4.15;;;18.70;86.40;;;;;;6243924;23;20000;-71
2023/10/24 03:31:06;;;;;;;22.15;4.38;;;18.60;86.30;;;;;;6244453;23;20378;-72
2023/10/24 03:33:33;;;;;;;13.63;3.88;;;18.70;86.50;;;;;;6243964;23;20000;-72
2023/10/24 03:36:00;;;;;;;18.30;3.90;;;18.70;86.50;;;;;;6217415;23;20082;-72
2023/10/24 03:38:27;;;;;;;18.60;3.92;;;18.60;86.50;;;;;;6217483;23;20008;-72
2023/10/24 03:40:53;;;;;;;16.35;4.20;;;18.60;86.50;;;;;;6244171;23;20008;-72
2023/10/24 03:43:21;;;;;;;10.13;3.53;;;18.60;86.40;;;;;;6244375;23;20000;-72
2023/10/24 03:45:47;;;;;;;17.02;4.47;;;18.60;86.30;;;;;;6244460;23;20004;-72
2023/10/24 03:48:13;;;;;;;17.60;4.25;;;18.60;86.30;;;;;;6244746;23;20012;-72
2023/10/24 03:50:39;;;;;;;16.90;4.68;;;18.60;86.40;;;;;;6244637;23;19997;-72
2023/10/24 03:53:06;;;;;;;18.45;4.50;;;18.60;86.40;;;;;;6244159;23;20004;-71
2023/10/24 03:55:32;;;;;;;12.00;3.65;;;18.70;86.30;;;;;;6244299;23;20000;-73
2023/10/24 03:57:58;;;;;;;18.95;4.03;;;18.60;86.30;;;;;;6244289;23;20005;-71
2023/10/24 04:00:24;;;;;;;15.63;7.45;;;18.60;86.40;;;;;;6244759;23;20421;-72
2023/10/24 04:02:54;;;;;;;17.17;3.83;;;18.60;86.40;;;;;;6244182;23;20430;-73
2023/10/24 04:05:20;;;;;;;15.68;4.35;;;18.60;86.30;;;;;;6217460;23;20497;-73
2023/10/24 04:07:46;;;;;;;15.32;3.95;;;18.60;86.30;;;;;;6244533;23;19996;-73
2023/10/24 04:10:13;;;;;;;14.50;4.13;;;18.60;86.10;;;;;;6217274;23;20032;-73
2023/10/24 04:12:39;;;;;;;13.90;4.25;;;18.60;86.20;;;;;;6244080;23;20004;-72
2023/10/24 04:15:05;;;;;;;21.70;3.90;;;18.60;86.10;;;;;;6243737;23;20004;-74
2023/10/24 04:17:35;;;;;;;20.13;4.10;;;18.70;86.20;;;;;;6243889;23;20107;-72
2023/10/24 04:20:01;;;;;;;17.98;3.80;;;18.70;86.10;;;;;;6243960;23;20290;-71
2023/10/24 04:22:27;;;;;;;18.42;4.50;;;18.70;85.90;;;;;;6243721;23;20031;-71
2023/10/24 04:24:54;;;;;;;15.80;3.83;;;18.70;85.70;;;;;;6243793;23;20325;-72
2023/10/24 04:27:19;;;;;;;20.42;6.05;;;18.70;85.70;;;;;;6244020;23;20008;-72
2023/10/24 04:29:46;;;;;;;15.10;4.28;;;18.70;85.60;;;;;;6243894;23;20457;-72
2023/10/24 04:32:12;;;;;;;13.85;4.22;;;18.70;85.80;;;;;;6243658;23;20054;-73
2023/10/24 04:34:38;;;;;;;13.82;4.07;;;18.70;85.70;;;;;;6244673;23;20418;-72
2023/10/24 04:37:04;;;;;;;22.05;4.30;;;18.60;85.60;;;;;;6245707;23;20058;-72
2023/10/24 04:39:30;;;;;;;18.20;4.07;;;18.70;85.40;;;;;;6245628;23;20004;-70
2023/10/24 04:41:56;;;;;;;16.45;3.83;;;18.60;85.40;;;;;;6245831;23;20004;-72
2023/10/24 04:44:22;;;;;;;22.73;4.07;;;18.60;85.30;;;;;;6245754;23;20000;-72
2023/10/24 04:46:47;;;;;;;22.45;4.15;;;18.60;85.30;;;;;;6245489;23;20008;-73
2023/10/24 04:49:15;;;;;;;18.38;3.55;;;18.60;85.00;;;;;;6245540;23;20003;-72
2023/10/24 04:51:41;;;;;;;18.02;4.63;;;18.60;85.00;;;;;;6218612;23;20008;-72
2023/10/24 04:54:07;;;;;;;23.17;4.30;;;18.60;85.10;;;;;;6218656;23;20051;-71
2023/10/24 04:56:33;;;;;;;19.67;4.65;;;18.60;85.00;;;;;;6245524;23;20032;-72
2023/10/24 04:58:58;;;;;;;23.33;4.38;;;18.60;84.80;;;;;;6245363;23;20004;-72
2023/10/24 05:01:24;;;;;;;20.25;3.63;;;18.70;84.90;;;;;;6245249;23;20079;-72
2023/10/24 05:03:50;;;;;;;20.63;3.75;;;18.70;84.80;;;;;;6245518;23;20008;-72
2023/10/24 05:06:15;;;;;;;15.40;3.33;;;18.80;84.70;;;;;;6245095;23;20012;-71
2023/10/24 05:08:41;;;;;;;18.00;3.63;;;18.80;84.30;;;;;;6245866;23;20071;-73
2023/10/24 05:11:07;;;;;;;18.92;4.15;;;18.90;84.10;;;;;;6245705;23;20054;-72
2023/10/24 05:13:33;;;;;;;21.20;4.32;;;18.90;83.80;;;;;;6245700;23;20407;-73
2023/10/24 05:15:59;;;;;;;21.17;4.80;;;18.90;83.40;;;;;;6245306;23;20004;-71
2023/10/24 05:18:25;;;;;;;21.35;4.47;;;18.90;83.10;;;;;;6218633;23;20003;-71
2023/10/24 05:20:50;;;;;;;19.02;3.65;;;19.00;82.90;;;;;;6245028;23;20013;-72
2023/10/24 05:23:16;;;;;;;27.77;5.10;;;19.10;82.40;;;;;;6245173;23;20000;-72
2023/10/24 05:25:42;;;;;;;20.42;4.60;;;19.10;81.80;;;;;;6245236;23;20015;-73
2023/10/24 05:28:08;;;;;;;23.05;4.47;;;19.00;81.70;;;;;;6245069;23;20030;-74
2023/10/24 05:30:36;;;;;;;27.88;4.72;;;19.00;81.60;;;;;;6244969;23;20095;-73
2023/10/24 05:33:03;;;;;;;21.90;3.88;;;19.00;81.40;;;;;;6245067;23;19996;-76
2023/10/24 05:35:29;;;;;;;24.17;4.15;;;19.10;81.20;;;;;;6244901;23;20342;-74
2023/10/24 05:37:56;;;;;;;25.30;4.93;;;19.10;81.00;;;;;;6245074;23;20004;-75
2023/10/24 05:40:21;;;;;;;17.73;4.32;;;19.10;80.80;;;;;;6244660;23;20008;-74
2023/10/24 05:42:47;;;;;;;24.80;4.32;;;19.10;80.80;;;;;;6244665;23;20031;-75
2023/10/24 05:45:13;;;;;;;16.77;3.40;;;19.10;80.60;;;;;;6244750;23;20023;-75
2023/10/24 05:47:38;;;;;;;21.60;4.28;;;19.10;80.60;;;;;;6245601;23;20102;-74
2023/10/24 05:50:05;;;;;;;21.90;4.22;;;19.10;80.50;;;;;;6245076;23;20327;-75
2023/10/24 05:52:31;;;;;;;23.70;3.90;;;19.10;80.60;;;;;;6244690;23;20004;-75
2023/10/24 05:54:57;;;;;;;26.92;4.35;;;19.10;80.10;;;;;;6245118;23;20422;-74
2023/10/24 05:57:23;;;;;;;18.02;3.47;;;19.10;80.00;;;;;;6245037;23;20062;-75
2023/10/24 05:59:49;;;;;;;19.65;3.60;;;19.20;79.80;;;;;;6244959;23;20024;-75
2023/10/24 06:02:15;;;;;;;19.52;3.83;;;19.20;79.50;;;;;;6245403;23;20079;-76
2023/10/24 06:04:41;;;;;;;18.80;4.20;;;19.30;79.40;;;;;;6245330;23;20031;-75
2023/10/24 06:07:07;;;;;;;30.08;4.97;;;19.30;79.10;;;;;;6244658;23;20007;-74
2023/10/24 06:09:33;;;;;;;25.30;4.82;;;19.40;79.20;;;;;;6244840;23;20004;-77
2023/10/24 06:11:58;;;;;;;18.83;4.13;;;19.40;78.80;;;;;;6245268;23;20004;-72
2023/10/24 06:14:24;;;;;;;17.98;4.35;;;19.40;78.70;;;;;;6218494;23;20011;-76
2023/10/24 06:16:50;;;;;;;20.35;3.90;;;19.50;78.70;;;;;;6245281;23;20390;-77
2023/10/24 06:19:15;;;;;;;27.55;4.97;;;19.50;78.30;;;;;;6217800;23;20048;-75
2023/10/24 06:21:41;;;;;;;25.80;4.20;;;19.50;77.90;;;;;;6244591;23;20393;-73
2023/10/24 06:24:07;;;;;;;18.08;3.78;;;19.60;77.80;;;;;;6244676;23;20000;-70
2023/10/24 06:26:32;;;;;;;23.73;4.95;;;19.70;77.80;;;;;;6244850;23;20036;-72
2023/10/24 06:28:58;;;;;;;23.42;5.03;;;19.70;77.70;;;;;;6244760;23;19996;-72
2023/10/24 06:31:26;;;;;;;28.17;5.07;;;19.70;77.50;;;;;;6245009;23;20004;-73
2023/10/24 06:33:51;;;;;;;25.20;4.43;;;19.80;77.60;;;;;;6244689;23;20370;-72
2023/10/24 06:36:17;;;;;;;29.27;5.70;;;19.80;77.20;;;;;;6244773;23;20007;-73
2023/10/24 06:38:43;;;;;;;26.33;6.30;;;19.90;76.90;;;;;;6245041;23;20035;-73
2023/10/24 06:41:09;;;;;;;23.70;5.95;;;20.00;77.00;;;;;;6217996;23;20023;-73
2023/10/24 06:43:35;;;;;;;30.45;5.50;;;20.00;76.80;;;;;;6245071;23;20070;-75
2023/10/24 06:46:05;;;;;;;21.83;5.30;;;20.10;76.50;;;;;;6244746;23;20307;-73
2023/10/24 06:48:31;;;;;;;24.25;4.47;;;20.20;76.20;;;;;;6244643;23;20004;-73
2023/10/24 06:50:57;;;;;;;22.20;5.13;;;20.30;76.00;;;;;;6244397;23;20006;-71
2023/10/24 06:53:23;;;;;;;20.70;4.90;;;20.40;75.60;;;;;;6244368;23;20004;-77
2023/10/24 06:55:48;;;;;;;35.72;5.70;;;20.50;75.70;;;;;;6244594;23;20004;-74
2023/10/24 06:58:14;;;;;;;25.13;6.18;;;20.50;75.20;;;;;;6244689;23;20000;-73
2023/10/24 07:00:40;;;;;;;23.52;5.75;;;20.60;75.00;;;;;;6244529;23;20012;-74
2023/10/24 07:03:05;;;;;;;21.05;5.50;;;20.60;75.00;;;;;;6244136;23;20000;-78
2023/10/24 07:05:32;;;;;;;26.15;6.45;;;20.70;74.80;;;;;;6244476;23;20011;-74
2023/10/24 07:07:58;;;;;;;22.35;5.72;;;20.70;74.50;;;;;;6244507;23;20003;-73
2023/10/24 07:10:24;;;;;;;24.63;6.18;;;20.80;74.30;;;;;;6244411;23;20342;-73
2023/10/24 07:12:50;;;;;;;29.65;7.13;;;20.90;74.40;;;;;;6245446;23;20011;-72
2023/10/24 07:15:15;;;;;;;31.52;6.22;;;21.00;74.30;;;;;;6245528;23;20482;-72
2023/10/24 07:17:41;;;;;;;20.35;6.60;;;21.10;74.30;;;;;;6244438;23;20007;-73
2023/10/24 07:20:07;;;;;;;25.55;7.82;;;21.20;74.00;;;;;;6244577;23;20000;-69
2023/10/24 07:22:33;;;;;;;30.98;7.47;;;21.30;74.10;;;;;;6244808;23;20000;-73
2023/10/24 07:24:59;;;;;;;31.50;7.25;;;21.40;73.60;;;;;;6244691;23;20066;-73
2023/10/24 07:27:24;;;;;;;29.67;7.15;;;21.50;73.60;;;;;;6244998;23;20004;-72
2023/10/24 07:29:50;;;;;;;22.42;6.38;;;21.60;73.40;;;;;;6244749;23;19997;-72
2023/10/24 07:32:16;;;;;;;26.80;6.65;;;21.70;73.20;;;;;;6244532;23;20109;-74
2023/10/24 07:34:41;;;;;;;29.45;5.95;;;21.80;73.20;;;;;;6245075;23;20111;-74
2023/10/24 07:37:10;;;;;;;29.35;5.85;;;21.80;72.90;;;;;;6244724;23;20092;-73
2023/10/24 07:39:37;;;;;;;33.22;5.85;;;21.90;72.60;;;;;;6244401;23;20346;-72
2023/10/24 07:42:03;;;;;;;18.48;5.07;;;21.90;72.20;;;;;;6244217;23;20330;-73
2023/10/24 07:44:29;;;;;;;24.50;5.88;;;22.00;71.80;;;;;;6244275;23;20072;-72
2023/10/24 07:46:55;;;;;;;27.77;6.57;;;22.00;71.20;;;;;;6244498;23;20000;-74
2023/10/24 07:49:21;;;;;;;25.05;6.53;;;22.10;71.10;;;;;;6244791;23;20449;-73
2023/10/24 07:51:46;;;;;;;24.83;7.03;;;22.10;70.70;;;;;;6244629;23;20035;-72
2023/10/24 07:54:13;;;;;;;24.00;6.65;;;22.20;70.30;;;;;;6244742;23;20362;-73
2023/10/24 07:56:39;;;;;;;20.92;5.65;;;22.30;69.80;;;;;;6244649;23;20004;-74
2023/10/24 07:59:05;;;;;;;27.83;5.82;;;22.40;69.60;;;;;;6244685;23;20000;-74
2023/10/24 08:01:31;;;;;;;26.65;4.65;;;22.50;68.50;;;;;;6244739;23;20012;-73
2023/10/24 08:03:57;;;;;;;20.73;4.38;;;22.70;68.30;;;;;;6244678;23;20007;-74
2023/10/24 08:06:23;;;;;;;24.15;5.50;;;22.70;67.80;;;;;;6244521;23;20009;-72
2023/10/24 08:08:48;;;;;;;20.80;4.75;;;22.80;67.50;;;;;;6245033;23;20303;-73
2023/10/24 08:11:14;;;;;;;27.52;4.30;;;22.90;67.50;;;;;;6246209;23;20012;-72
2023/10/24 08:13:40;;;;;;;13.82;3.72;;;23.00;67.60;;;;;;6246212;23;20458;-71
2023/10/24 08:16:07;;;;;;;24.20;4.18;;;23.00;67.30;;;;;;6246276;23;20071;-72
2023/10/24 08:18:34;;;;;;;24.00;4.40;;;23.10;67.30;;;;;;6246213;23;20034;-73
2023/10/24 08:21:00;;;;;;;19.20;3.55;;;23.10;67.20;;;;;;6246040;23;20012;-72
2023/10/24 08:23:28;;;;;;;25.88;3.70;;;23.20;67.20;;;;;;6245907;23;19996;-72
2023/10/24 08:25:54;;;;;;;23.40;3.70;;;23.20;67.20;;;;;;6245932;23;20000;-72
2023/10/24 08:28:19;;;;;;;21.02;3.88;;;23.20;67.20;;;;;;6246615;23;20004;-72
2023/10/24 08:30:45;;;;;;;24.20;4.05;;;23.20;67.30;;;;;;6246025;23;20346;-71
2023/10/24 08:33:11;;;;;;;24.75;3.65;;;23.20;67.50;;;;;;6245908;23;20000;-74
2023/10/24 08:35:37;;;;;;;15.85;3.58;;;23.30;67.30;;;;;;6246086;23;20012;-73
2023/10/24 08:38:03;;;;;;;26.23;4.43;;;23.30;67.30;;;;;;6245861;23;20381;-72
2023/10/24 08:40:29;;;;;;;21.23;3.53;;;23.40;67.30;;;;;;6245969;23;20016;-73
2023/10/24 08:42:55;;;;;;;18.75;4.72;;;23.40;67.30;;;;;;6245512;23;20000;-73
2023/10/24 08:45:21;;;;;;;26.42;4.60;;;23.50;67.10;;;;;;6245408;23;20026;-72
2023/10/24 08:47:48;;;;;;;20.45;4.65;;;23.60;67.00;;;;;;6245880;23;20011;-73
2023/10/24 08:50:14;;;;;;;23.95;4.70;;;23.70;66.70;;;;;;6245816;23;20013;-73
2023/10/24 08:52:40;;;;;;;21.10;3.92;;;23.70;67.00;;;;;;6245877;23;20462;-73
2023/10/24 08:55:06;;;;;;;26.92;5.47;;;23.60;67.20;;;;;;6245922;23;20004;-73
2023/10/24 08:57:40;;;;;;;18.17;4.50;;;23.60;68.00;;;;;;6245750;23;20004;-73
2023/10/24 09:00:10;;;;;;;24.38;4.25;;;23.70;67.70;;;;;;6245508;23;20055;-73
2023/10/24 09:02:36;;;;;;;27.08;4.82;;;23.70;67.90;;;;;;6246106;23;20059;-75
2023/10/24 09:05:04;;;;;;;24.83;4.20;;;23.70;68.00;;;;;;6246013;23;19996;-73
2023/10/24 09:07:30;;;;;;;16.20;3.97;;;23.80;68.30;;;;;;6245737;23;20105;-72
2023/10/24 09:09:55;;;;;;;27.80;4.70;;;23.70;68.20;;;;;;6245322;23;20012;-74
2023/10/24 09:12:21;;;;;;;23.77;4.05;;;23.80;68.50;;;;;;6245853;23;20051;-75
2023/10/24 09:14:48;;;;;;;23.13;4.85;;;23.90;68.70;;;;;;6245645;23;20034;-73
2023/10/24 09:17:15;;;;;;;21.42;3.53;;;23.90;68.90;;;;;;6245433;23;20011;-73
2023/10/24 09:19:42;;;;;;;25.92;4.47;;;24.00;69.20;;;;;;6245258;23;20004;-75
2023/10/24 09:22:08;;;;;;;17.83;4.28;;;24.10;69.30;;;;;;6245941;23;20023;-72
2023/10/24 09:24:37;;;;;;;22.73;5.10;;;24.10;69.40;;;;;;6245311;23;20330;-76
2023/10/24 09:27:03;;;;;;;21.65;4.05;;;24.20;69.70;;;;;;6245344;23;20460;-74
2023/10/24 09:29:31;;;;;;;23.30;4.10;;;24.30;69.70;;;;;;6245581;23;20000;-73
2023/10/24 09:31:58;;;;;;;17.98;3.70;;;24.30;69.70;;;;;;6245657;23;20024;-73
2023/10/24 09:34:24;;;;;;;23.10;4.25;;;24.40;69.90;;;;;;6245634;23;20303;-71
2023/10/24 09:36:50;;;;;;;21.42;4.20;;;24.40;69.80;;;;;;6245611;23;20004;-74
2023/10/24 09:39:16;;;;;;;23.40;4.55;;;24.40;69.80;;;;;;6245430;23;20004;-72
2023/10/24 09:41:44;;;;;;;17.98;4.20;;;24.50;70.00;;;;;;6245331;23;20015;-73
2023/10/24 09:44:10;;;;;;;19.73;4.60;;;24.40;69.70;;;;;;6245190;23;20001;-71
2023/10/24 09:46:37;;;;;;;23.52;4.50;;;24.40;69.70;;;;;;6245594;23;20000;-71
2023/10/24 09:49:07;;;;;;;23.00;5.10;;;24.30;70.10;;;;;;6245567;23;19996;-72
2023/10/24 09:51:37;;;;;;;20.92;4.88;;;24.20;70.10;;;;;;6245656;23;20007;-73
2023/10/24 09:54:11;;;;;;;27.15;6.13;;;24.20;70.50;;;;;;6244959;23;20007;-72
2023/10/24 09:56:37;;;;;;;26.42;5.28;;;24.10;70.90;;;;;;6245730;23;20054;-74
2023/10/24 09:59:04;;;;;;;26.38;5.40;;;24.10;71.20;;;;;;6245390;23;20024;-72
2023/10/24 10:01:31;;;;;;;30.95;5.20;;;24.10;71.50;;;;;;6245120;23;20024;-71
2023/10/24 10:04:00;;;;;;;18.48;4.57;;;24.10;71.80;;;;;;6245326;23;20087;-72
2023/10/24 10:06:30;;;;;;;24.98;5.05;;;24.10;71.80;;;;;;6245284;23;20011;-72
2023/10/24 10:08:59;;;;;;;28.13;4.93;;;24.10;71.80;;;;;;6244891;23;20038;-72
2023/10/24 10:11:32;;;;;;;22.88;5.70;;;24.10;71.70;;;;;;6245296;23;20090;-71
2023/10/24 10:14:13;;;;;;;34.40;6.88;;;24.10;71.80;;;;;;6245491;23;20008;-71
2023/10/24 10:16:48;;;;;;;27.08;6.65;;;24.20;71.60;;;;;;6245190;23;20373;-72
2023/10/24 10:19:29;;;;;;;26.95;5.50;;;24.20;71.90;;;;;;6244895;23;20275;-71
2023/10/24 10:22:13;;;;;;;35.72;6.70;;;24.20;71.80;;;;;;6217874;23;20398;-73
2023/10/24 10:24:44;;;;;;;25.45;5.82;;;24.30;71.90;;;;;;6245020;23;19996;-71
2023/10/24 10:27:31;;;;;;;30.40;5.93;;;24.40;71.80;;;;;;6245284;23;20118;-72
2023/10/24 10:30:12;;;;;;;30.88;6.60;;;24.40;71.70;;;;;;6193218;23;20027;-72
2023/10/24 10:33:03;;;;;;;25.73;6.20;;;24.50;71.70;;;;;;6217853;23;20335;-72
2023/10/24 10:36:04;;;;;;;26.13;6.13;;;24.60;71.60;;;;;;6228854;23;20088;-73
2023/10/24 10:38:40;;;;;;;24.67;5.78;;;24.70;71.50;;;;;;6245223;23;20003;-72
2023/10/24 10:41:27;;;;;;;25.08;5.90;;;24.60;71.40;;;;;;6244818;23;20450;-73
2023/10/24 10:43:58;;;;;;;29.50;5.88;;;24.70;71.60;;;;;;6244953;23;20095;-73
2023/10/24 10:46:29;;;;;;;30.67;5.85;;;24.70;71.40;;;;;;6218109;23;20004;-73
2023/10/24 10:48:59;;;;;;;22.77;6.05;;;24.80;71.40;;;;;;6244904;23;20311;-73
2023/10/24 10:51:30;;;;;;;25.45;5.40;;;24.90;71.30;;;;;;6245067;23;20043;-72
2023/10/24 10:54:25;;;;;;;22.23;5.47;;;25.00;70.90;;;;;;6245003;23;20000;-71
2023/10/24 10:56:50;;;;;;;30.38;6.18;;;25.10;70.90;;;;;;6244728;23;20023;-71
2023/10/24 10:59:57;;;;;;;23.83;4.78;;;25.10;70.90;;;;;;6245211;23;20423;-72
2023/10/24 11:02:32;;;;;;;29.63;5.40;;;25.20;70.90;;;;;;6245166;23;20043;-72
2023/10/24 11:04:57;;;;;;;27.25;5.30;;;25.20;70.80;;;;;;6244671;23;20031;-72
2023/10/24 11:07:51;;;;;;;26.58;5.30;;;25.30;71.20;;;;;;6245254;23;20004;-75
2023/10/24 11:10:18;;;;;;;;;;;25.40;70.90;;;;;;6244937;23;20074;-77
2023/10/24 11:12:48;;;;;;;25.88;6.07;;;25.40;70.90;;;;;;6244655;23;19978;-76
2023/10/24 11:15:19;;;;;;;39.10;6.72;;;25.40;71.30;;;;;;6244001;23;20081;-77
2023/10/24 11:17:46;;;;;;;22.13;5.63;;;25.40;72.00;;;;;;6243327;23;20047;-74
2023/10/24 11:20:12;;;;;;;31.75;6.63;;;25.40;72.00;;;;;;6244701;23;20022;-75
2023/10/24 11:22:38;;;;;;;31.42;5.50;;;25.30;72.50;;;;;;6244500;23;20105;-74
2023/10/24 11:25:13;;;;;;;26.35;5.78;;;25.20;72.60;;;;;;6244451;23;19996;-76
2023/10/24 11:27:41;;;;;;;43.88;6.15;;;25.10;73.30;;;;;;6244035;23;20376;-74
2023/10/24 11:30:07;;;;;;;32.78;5.82;;;25.10;73.20;;;;;;6243851;23;20361;-73
2023/10/24 11:32:33;;;;;;;34.58;6.00;;;25.00;73.40;;;;;;6244067;23;20434;-74
2023/10/24 11:35:00;;;;;;;21.05;5.43;;;25.00;73.40;;;;;;6244337;23;20498;-72
2023/10/24 11:37:27;;;;;;;32.90;6.13;;;24.90;73.30;;;;;;6244268;23;20024;-76
2023/10/24 11:39:53;;;;;;;28.00;5.82;;;24.80;73.30;;;;;;6244081;23;20004;-76
2023/10/24 11:42:19;;;;;;;27.90;5.80;;;24.80;73.10;;;;;;6244425;23;20087;-75
2023/10/24 11:44:45;;;;;;;29.92;6.13;;;24.80;73.50;;;;;;6246471;23;20419;-75
2023/10/24 11:47:16;;;;;;;31.08;5.50;;;24.80;73.50;;;;;;6246197;23;20008;-76
2023/10/24 11:49:45;;;;;;;26.50;5.72;;;24.80;73.60;;;;;;6246584;23;20472;-77
2023/10/24 11:52:11;;;;;;;29.50;5.95;;;24.70;73.60;;;;;;6246427;23;20003;-75
2023/10/24 11:54:38;;;;;;;27.10;5.65;;;24.70;73.90;;;;;;6246857;23;20008;-76
2023/10/24 11:57:05;;;;;;;34.17;6.22;;;24.70;73.70;;;;;;6246880;23;20008;-77
2023/10/24 11:59:35;;;;;;;29.45;5.32;;;24.70;74.20;;;;;;6246457;23;20000;-77
2023/10/24 12:02:01;;;;;;;27.27;5.45;;;24.70;74.30;;;;;;6245869;23;20426;-77
2023/10/24 12:04:27;;;;;;;30.35;6.15;;;24.70;74.50;;;;;;6246225;23;20027;-77
2023/10/24 12:07:08;;;;;;;25.30;6.13;;;24.80;74.80;;;;;;6246063;23;20016;-77
2023/10/24 12:09:37;;;;;;;26.90;6.35;;;24.80;74.50;;;;;;6245653;23;20039;-76
2023/10/24 12:12:05;;;;;;;24.95;5.43;;;24.80;75.40;;;;;;6246226;23;20064;-76
2023/10/24 12:14:33;;;;;;;29.20;5.88;;;24.80;75.20;;;;;;6246347;23;20004;-78
2023/10/24 12:16:59;;;;;;;32.35;5.53;;;24.80;74.90;;;;;;6245956;23;20066;-76
2023/10/24 12:19:24;;;;;;;33.88;5.70;;;24.90;75.40;;;;;;6245891;23;20418;-74
2023/10/24 12:21:51;;;;;;;23.30;5.95;;;25.00;75.60;;;;;;6245559;23;20038;-77
2023/10/24 12:24:16;;;;;;;27.95;6.30;;;25.00;75.30;;;;;;6245940;23;20043;-77
2023/10/24 12:26:42;;;;;;;33.95;5.82;;;25.00;75.90;;;;;;6246375;23;20430;-77
2023/10/24 12:29:11;;;;;;;28.35;6.07;;;24.90;76.10;;;;;;6245846;23;20000;-77
2023/10/24 12:31:38;;;;;;;33.80;6.32;;;24.90;76.60;;;;;;6246217;23;20008;-76
2023/10/24 12:34:04;;;;;;;30.38;5.53;;;25.00;76.40;;;;;;6246147;23;20004;-76
2023/10/24 12:36:29;;;;;;;38.20;7.63;;;25.00;76.50;;;;;;6246014;23;20083;-75
2023/10/24 12:38:55;;;;;;;31.75;6.40;;;25.00;76.90;;;;;;6246085;23;20055;-77